Air Resources Laboratory banner image
Air Resources Laboratory web site National Oceanic and Atmospheric Administration (NOAA)

ga metar


KABY 170653Z AUTO 00000KT 9SM CLR 24/22 A2990 RMK AO2 SLP123 T02390217=
KAHN 170710Z AUTO 06007KT 10SM OVC010 21/19 A2995 RMK AO2 T02110189=
KAMG 170653Z AUTO 00000KT 10SM CLR 24/22 A2988 RMK AO2 SLP115 T02390217=
KAYS 170655Z AUTO 00000KT 10SM CLR 24/23 A2989 RMK AO2 T02370230=
KFTY 170708Z 07004KT 10SM BKN016 OVC100 23/20 A2994 RMK AO2 T02330200=
KLGC 170655Z AUTO 00000KT 10SM CLR 21/19 A2994 RMK AO2 T02110188=
KLHW 170655Z AUTO 36003KT 10SM CLR 22/21 A2986 RMK AO2 SLPNO T02240210 $=
KLSF 170655Z AUTO 00000KT 4SM BR CLR 21/21 A2988 RMK AO2 SLPNO T02110206 $=
KLZU 170656Z AUTO 08007KT 10SM FEW014 BKN022 BKN055 22/19 A2996 RMK AO2 SLP147
 T02170194=
KMGE 170655Z AUTO 04005KT 10SM OVC015 23/19 A2994 RMK AO2 SLPNO T02270194 $=
KMGR 170655Z AUTO 00000KT 10SM CLR 24/23 A2990 RMK AO2=
KOPN 170655Z AUTO 02004KT 10SM BKN005 22/21 A2994 RMK AO2=
KPDK 170715Z AUTO VRB04KT 10SM OVC014 22/19 A2995 RMK AO2 T02220194=
KSAV 170653Z AUTO 01005KT 10SM CLR 22/21 A2990 RMK AO2 SLP123 T02220211=
KSSI 170653Z AUTO 03006KT 10SM CLR 27/24 A2986 RMK AO2 SLP112 T02720239=
KSVN 170655Z AUTO 36007KT 10SM CLR 24/21 A2987 RMK AO2 SLPNO T02350214 $=
KVAD 170655Z AUTO 00000KT 10SM CLR 24/23 A2987 RMK AO2 SLPNO T02400231 $=
KVLD 170653Z AUTO 00000KT 3SM BR CLR 24/23 A2988 RMK AO2 SLP123 T02390228=
KVPC 170715Z AUTO 03004KT 10SM BKN050 OVC060 22/19 A2995 RMK AO2=
KWRB 170655Z 00000KT 8SM CLR 23/23 A2989 RMK AO2A SLPNO T02250225=